Time;durP1;ratioP1;P1;durP2;ratioP2;P2;SDS_P1;SDS_P2;PMS_P1;PMS_P2;Temp;Humidity;BMP_temperature;BMP_pressure;BME280_temperature;BME280_humidity;BME280_pressure;Samples;Min_cycle;Max_cycle;Signal;HPM_P1;HPM_P2
2022/07/31 00:00:30;;;;;;;1.48;1.30;;;22.90;87.50;;;;;;5107303;28;20043;-35
2022/07/31 00:02:56;;;;;;;2.25;1.40;;;22.90;87.50;;;;;;5108305;28;20019;-34
2022/07/31 00:05:22;;;;;;;4.68;1.98;;;22.80;87.60;;;;;;5107943;28;20030;-33
2022/07/31 00:07:48;;;;;;;3.03;2.00;;;22.80;87.70;;;;;;5106590;28;20046;-34
2022/07/31 00:10:14;;;;;;;1.73;1.50;;;22.80;87.80;;;;;;5108216;28;20470;-34
2022/07/31 00:12:39;;;;;;;2.97;2.00;;;22.80;88.00;;;;;;5107511;28;20154;-34
2022/07/31 00:15:06;;;;;;;1.63;1.52;;;22.70;88.10;;;;;;5108148;28;20035;-34
2022/07/31 00:17:32;;;;;;;1.83;1.73;;;22.70;88.30;;;;;;5107825;28;20049;-35
2022/07/31 00:19:58;;;;;;;3.30;1.60;;;22.70;88.50;;;;;;5107720;28;20029;-35
2022/07/31 00:22:23;;;;;;;4.43;1.58;;;22.60;88.50;;;;;;5107493;28;20036;-33
2022/07/31 00:24:49;;;;;;;1.70;1.58;;;22.60;88.70;;;;;;5107625;28;20027;-33
2022/07/31 00:27:14;;;;;;;1.75;1.40;;;22.60;89.40;;;;;;5107100;28;20128;-35
2022/07/31 00:29:40;;;;;;;4.68;1.52;;;22.50;88.80;;;;;;5107482;28;20070;-35
2022/07/31 00:32:05;;;;;;;1.52;1.42;;;22.50;88.90;;;;;;5107192;28;20031;-33
2022/07/31 00:34:31;;;;;;;2.50;1.55;;;22.50;89.10;;;;;;5107410;28;20019;-34
2022/07/31 00:36:56;;;;;;;2.25;2.03;;;22.40;89.10;;;;;;5108074;28;20514;-33
2022/07/31 00:39:23;;;;;;;1.92;1.40;;;22.40;89.20;;;;;;5107778;28;20107;-34
2022/07/31 00:41:48;;;;;;;2.63;1.50;;;22.40;89.30;;;;;;5106258;28;20418;-33
2022/07/31 00:44:14;;;;;;;4.00;2.00;;;22.40;89.40;;;;;;5107851;28;20107;-34
2022/07/31 00:46:40;;;;;;;2.10;1.70;;;22.40;89.50;;;;;;5107389;28;20028;-33
2022/07/31 00:49:08;;;;;;;1.80;1.52;;;22.40;89.60;;;;;;5107016;28;20020;-34
2022/07/31 00:51:34;;;;;;;1.92;1.50;;;22.40;89.70;;;;;;5107544;28;20040;-33
2022/07/31 00:54:00;;;;;;;1.92;1.67;;;22.40;89.80;;;;;;5107739;28;20391;-34
2022/07/31 00:56:26;;;;;;;1.95;1.65;;;22.40;90.00;;;;;;5105970;28;20565;-34
2022/07/31 00:58:54;;;;;;;2.10;1.90;;;22.40;90.00;;;;;;5107639;28;20072;-34
2022/07/31 01:01:19;;;;;;;3.30;1.50;;;22.30;90.00;;;;;;5107696;28;20051;-35
2022/07/31 01:03:45;;;;;;;3.25;1.80;;;22.30;90.10;;;;;;5105726;28;20341;-34
2022/07/31 01:06:12;;;;;;;1.90;1.50;;;22.20;90.20;;;;;;5107864;28;20443;-35
2022/07/31 01:08:38;;;;;;;1.65;1.50;;;22.10;90.40;;;;;;5105647;28;20027;-34
2022/07/31 01:11:12;;;;;;;2.10;1.70;;;21.90;90.70;;;;;;5106685;28;20035;-34
2022/07/31 01:13:49;;;;;;;2.78;2.03;;;21.90;90.90;;;;;;5106873;28;20019;-34
2022/07/31 01:16:17;;;;;;;2.58;1.83;;;21.80;91.00;;;;;;5086395;28;20371;-32
2022/07/31 01:18:43;;;;;;;2.00;1.80;;;21.70;91.10;;;;;;5100863;28;20284;-35
2022/07/31 01:21:16;;;;;;;2.10;1.73;;;21.70;91.20;;;;;;5106612;28;20035;-34
2022/07/31 01:24:16;;;;;;;1.80;1.70;;;21.70;91.40;;;;;;5105749;28;20023;-34
2022/07/31 01:26:45;;;;;;;2.03;1.70;;;21.60;91.50;;;;;;5086389;28;20044;-34
2022/07/31 01:29:23;;;;;;;1.90;1.73;;;21.60;91.50;;;;;;5102400;28;20043;-34
2022/07/31 01:31:57;;;;;;;2.00;1.80;;;21.70;91.70;;;;;;5085330;28;20547;-34
2022/07/31 01:34:42;;;;;;;2.47;2.15;;;21.70;91.70;;;;;;5103255;28;20031;-33
2022/07/31 01:37:25;;;;;;;1.85;1.65;;;21.70;91.80;;;;;;5106164;28;20130;-34
2022/07/31 01:40:02;;;;;;;2.83;1.63;;;21.70;91.80;;;;;;5105773;28;20487;-33
2022/07/31 01:42:30;;;;;;;1.73;1.63;;;21.60;91.80;;;;;;5106143;28;20039;-34
2022/07/31 01:44:59;;;;;;;2.65;1.90;;;21.60;91.90;;;;;;5105022;28;20032;-34
2022/07/31 01:47:26;;;;;;;2.40;1.85;;;21.70;92.00;;;;;;5106401;28;20019;-34
2022/07/31 01:49:53;;;;;;;2.92;2.15;;;21.60;92.10;;;;;;5105698;28;20114;-35
2022/07/31 01:52:23;;;;;;;1.92;1.63;;;21.70;92.20;;;;;;5105694;28;20042;-34
2022/07/31 01:54:50;;;;;;;1.83;1.70;;;21.70;92.30;;;;;;5106055;28;20096;-32
2022/07/31 01:57:17;;;;;;;1.92;1.80;;;21.70;92.30;;;;;;5106339;28;20111;-35
2022/07/31 01:59:44;;;;;;;2.33;1.67;;;21.70;92.30;;;;;;5105418;28;20024;-34
2022/07/31 02:02:10;;;;;;;2.65;2.05;;;21.70;92.30;;;;;;5106869;28;20023;-34
2022/07/31 02:04:37;;;;;;;3.05;1.80;;;21.70;92.30;;;;;;5105766;28;20036;-35
2022/07/31 02:07:03;;;;;;;1.90;1.70;;;21.70;92.40;;;;;;5105585;28;20613;-35
2022/07/31 02:09:31;;;;;;;2.78;1.95;;;21.60;92.40;;;;;;5106074;28;20365;-34
2022/07/31 02:11:58;;;;;;;3.53;1.70;;;21.60;92.50;;;;;;5105327;28;20478;-33
2022/07/31 02:14:25;;;;;;;2.45;1.90;;;21.50;92.60;;;;;;5106119;28;20018;-34
2022/07/31 02:16:51;;;;;;;2.45;1.80;;;21.50;92.60;;;;;;5106067;28;20510;-35
2022/07/31 02:19:18;;;;;;;3.58;2.20;;;21.50;92.60;;;;;;5104927;28;20297;-33
2022/07/31 02:21:44;;;;;;;2.08;1.48;;;21.50;92.60;;;;;;5103933;28;20024;-34
2022/07/31 02:24:09;;;;;;;2.28;1.80;;;21.40;92.60;;;;;;5094294;28;20012;-34
2022/07/31 02:26:37;;;;;;;2.20;1.67;;;21.40;92.70;;;;;;5105080;28;20055;-33
2022/07/31 02:29:04;;;;;;;2.10;1.90;;;21.30;92.80;;;;;;5105922;28;20769;-35
2022/07/31 02:31:32;;;;;;;3.80;1.85;;;21.30;92.80;;;;;;5104870;28;20172;-34
2022/07/31 02:33:58;;;;;;;2.35;1.98;;;21.30;92.90;;;;;;5104653;28;20015;-35
2022/07/31 02:36:26;;;;;;;2.47;2.10;;;21.30;92.80;;;;;;5105265;28;20110;-34
2022/07/31 02:38:53;;;;;;;2.17;1.98;;;21.40;92.90;;;;;;5105916;28;20020;-35
2022/07/31 02:41:20;;;;;;;1.60;1.50;;;21.40;92.90;;;;;;5105036;28;20035;-32
2022/07/31 02:43:46;;;;;;;1.80;1.70;;;21.40;92.90;;;;;;5105447;28;20502;-35
2022/07/31 02:46:14;;;;;;;2.30;2.10;;;21.40;92.90;;;;;;5106034;28;20409;-33
2022/07/31 02:48:40;;;;;;;5.88;2.25;;;21.40;93.00;;;;;;5105154;28;20020;-35
2022/07/31 02:51:07;;;;;;;2.03;1.83;;;21.40;93.10;;;;;;5105366;28;20027;-35
2022/07/31 02:53:33;;;;;;;1.92;1.73;;;21.40;93.10;;;;;;5105284;28;20016;-34
2022/07/31 02:56:00;;;;;;;1.80;1.70;;;21.40;93.10;;;;;;5104612;28;20035;-34
2022/07/31 02:58:26;;;;;;;2.28;1.73;;;21.40;93.10;;;;;;5104929;28;20386;-35
2022/07/31 03:01:00;;;;;;;2.08;1.65;;;21.40;93.20;;;;;;5105368;28;20482;-34
2022/07/31 03:03:26;;;;;;;2.80;1.88;;;21.40;93.30;;;;;;5104145;28;20074;-34
2022/07/31 03:05:51;;;;;;;4.57;2.20;;;21.40;93.30;;;;;;5105116;28;20051;-35
2022/07/31 03:08:17;;;;;;;2.30;1.77;;;21.40;93.30;;;;;;5104916;28;20043;-34
2022/07/31 03:10:43;;;;;;;2.15;1.83;;;21.40;93.40;;;;;;5104853;28;20031;-34
2022/07/31 03:13:10;;;;;;;3.25;1.92;;;21.40;93.40;;;;;;5104782;28;20055;-34
2022/07/31 03:15:38;;;;;;;2.83;2.10;;;21.40;93.50;;;;;;5104531;28;20036;-34
2022/07/31 03:18:05;;;;;;;2.72;2.33;;;21.30;93.70;;;;;;5105189;28;20111;-35
2022/07/31 03:20:31;;;;;;;2.20;2.00;;;21.20;93.80;;;;;;5105228;28;20059;-33
2022/07/31 03:22:59;;;;;;;4.38;1.63;;;21.10;93.90;;;;;;5104485;28;20372;-35
2022/07/31 03:25:25;;;;;;;3.03;2.15;;;21.10;94.00;;;;;;5105142;28;20430;-34
2022/07/31 03:27:52;;;;;;;2.00;1.90;;;21.10;94.10;;;;;;5105015;28;20120;-35
2022/07/31 03:30:22;;;;;;;3.60;2.00;;;21.10;94.20;;;;;;5104142;28;20047;-33
2022/07/31 03:32:48;;;;;;;2.38;2.00;;;21.10;94.30;;;;;;5104356;28;20032;-33
2022/07/31 03:35:13;;;;;;;2.95;1.83;;;21.10;94.40;;;;;;5105517;28;20057;-34
2022/07/31 03:37:39;;;;;;;3.58;2.20;;;21.00;94.50;;;;;;5104255;28;20020;-34
2022/07/31 03:40:05;;;;;;;2.00;1.80;;;21.00;94.50;;;;;;5105589;28;20023;-34
2022/07/31 03:42:30;;;;;;;2.25;2.00;;;21.00;94.60;;;;;;5106536;28;20016;-33
2022/07/31 03:44:57;;;;;;;2.45;2.10;;;20.90;94.60;;;;;;5107774;28;20371;-34
2022/07/31 03:47:22;;;;;;;2.17;1.98;;;21.00;94.80;;;;;;5109112;28;20035;-34
2022/07/31 03:49:48;;;;;;;2.55;1.90;;;20.90;94.80;;;;;;5108125;28;20437;-34
2022/07/31 03:52:14;;;;;;;2.30;2.10;;;20.90;94.90;;;;;;5108169;28;20570;-34
2022/07/31 03:54:41;;;;;;;3.72;2.08;;;20.90;94.90;;;;;;5108542;28;20156;-33
2022/07/31 03:57:08;;;;;;;2.97;2.05;;;20.80;95.00;;;;;;5108679;28;20030;-34
2022/07/31 03:59:34;;;;;;;2.40;2.15;;;20.80;95.10;;;;;;5107332;28;20055;-35
2022/07/31 04:02:00;;;;;;;2.17;1.98;;;20.80;95.20;;;;;;5109145;28;20205;-34
2022/07/31 04:04:26;;;;;;;2.90;2.30;;;20.80;95.30;;;;;;5107780;28;20024;-34
2022/07/31 04:06:52;;;;;;;2.65;2.42;;;20.80;95.40;;;;;;5088589;28;20038;-34
2022/07/31 04:09:19;;;;;;;2.40;2.17;;;20.80;95.50;;;;;;5102946;28;20099;-35
2022/07/31 04:11:45;;;;;;;2.47;2.28;;;20.80;95.70;;;;;;5106682;28;20032;-35
2022/07/31 04:14:10;;;;;;;2.47;2.28;;;20.80;95.80;;;;;;5107814;28;20467;-33
2022/07/31 04:16:36;;;;;;;3.00;2.25;;;20.80;95.80;;;;;;5108539;28;20019;-33
2022/07/31 04:19:01;;;;;;;3.97;2.60;;;20.70;95.90;;;;;;5107149;28;20490;-34
2022/07/31 04:21:27;;;;;;;4.93;3.42;;;20.70;96.00;;;;;;5107953;28;20033;-33
2022/07/31 04:23:53;;;;;;;2.28;2.13;;;20.70;96.00;;;;;;5107645;28;20014;-33
2022/07/31 04:26:18;;;;;;;3.65;2.47;;;20.70;96.10;;;;;;5107147;28;20081;-33
2022/07/31 04:28:44;;;;;;;3.85;2.65;;;20.70;96.20;;;;;;5107092;28;20022;-34
2022/07/31 04:31:09;;;;;;;2.90;2.60;;;20.70;96.30;;;;;;5108184;28;20120;-33
2022/07/31 04:33:35;;;;;;;5.10;2.83;;;20.70;96.40;;;;;;5106927;28;20093;-34
2022/07/31 04:36:00;;;;;;;2.72;2.53;;;20.70;96.50;;;;;;5107248;28;20058;-33
2022/07/31 04:38:26;;;;;;;4.05;3.08;;;20.70;96.50;;;;;;5107839;28;20156;-34
2022/07/31 04:40:51;;;;;;;3.90;3.20;;;20.70;96.60;;;;;;5106347;28;20027;-34
2022/07/31 04:43:17;;;;;;;4.72;2.58;;;20.70;96.70;;;;;;5107627;28;20096;-33
2022/07/31 04:45:42;;;;;;;3.17;2.88;;;20.70;96.70;;;;;;5107498;28;20055;-36
2022/07/31 04:48:10;;;;;;;2.75;2.55;;;20.70;96.80;;;;;;5106337;28;20132;-34
2022/07/31 04:50:36;;;;;;;3.85;3.50;;;20.70;96.80;;;;;;5107001;28;20043;-34
2022/07/31 04:53:02;;;;;;;7.22;3.50;;;20.70;96.80;;;;;;5107360;28;20083;-34
2022/07/31 04:55:28;;;;;;;3.65;3.03;;;20.70;96.90;;;;;;5106115;28;20035;-34
2022/07/31 04:57:53;;;;;;;3.50;3.00;;;20.70;97.00;;;;;;5106812;28;20020;-34
2022/07/31 05:00:19;;;;;;;3.28;2.80;;;20.80;97.00;;;;;;5107222;28;20032;-34
2022/07/31 05:02:45;;;;;;;5.97;3.55;;;20.80;97.10;;;;;;5106349;28;20335;-34
2022/07/31 05:05:11;;;;;;;3.05;2.83;;;20.80;97.10;;;;;;5107187;28;20072;-33
2022/07/31 05:07:36;;;;;;;3.30;3.00;;;20.90;97.20;;;;;;5106999;28;20039;-34
2022/07/31 05:10:03;;;;;;;4.53;3.50;;;20.90;97.30;;;;;;5105898;28;20023;-34
2022/07/31 05:12:29;;;;;;;8.13;4.05;;;20.90;97.50;;;;;;5106147;28;20082;-34
2022/07/31 05:14:54;;;;;;;4.45;3.75;;;20.90;97.60;;;;;;5106552;28;20455;-35
2022/07/31 05:17:20;;;;;;;4.22;3.53;;;20.90;97.80;;;;;;5107064;28;20407;-34
2022/07/31 05:19:46;;;;;;;3.75;3.30;;;20.90;97.90;;;;;;5106634;28;20510;-34
2022/07/31 05:22:11;;;;;;;4.55;3.45;;;21.00;98.00;;;;;;5106492;28;20019;-35
2022/07/31 05:24:37;;;;;;;7.53;3.50;;;21.00;98.10;;;;;;5106355;28;20023;-34
2022/07/31 05:27:03;;;;;;;7.38;4.03;;;21.00;98.20;;;;;;5106025;28;20483;-34
2022/07/31 05:29:29;;;;;;;4.82;3.60;;;21.00;98.20;;;;;;5106487;28;20031;-33
2022/07/31 05:31:55;;;;;;;4.35;3.58;;;21.00;98.30;;;;;;5106715;28;20036;-34
2022/07/31 05:34:21;;;;;;;4.88;3.92;;;21.00;98.30;;;;;;5107408;28;20100;-34
2022/07/31 05:36:46;;;;;;;4.00;3.40;;;21.10;98.40;;;;;;5105305;28;20024;-33
2022/07/31 05:39:12;;;;;;;4.88;3.78;;;21.20;98.40;;;;;;5106788;28;20387;-33
2022/07/31 05:41:37;;;;;;;3.90;3.50;;;21.30;98.40;;;;;;5106194;28;20110;-34
2022/07/31 05:44:03;;;;;;;3.90;3.50;;;21.40;98.30;;;;;;5105731;28;20110;-33
2022/07/31 05:46:29;;;;;;;5.18;4.30;;;21.40;98.30;;;;;;5106069;28;20023;-34
2022/07/31 05:48:54;;;;;;;4.65;3.90;;;21.40;98.30;;;;;;5106333;28;20016;-34
2022/07/31 05:51:21;;;;;;;4.20;3.90;;;21.50;98.30;;;;;;5105571;28;20093;-35
2022/07/31 05:53:47;;;;;;;4.20;3.78;;;21.50;98.30;;;;;;5105566;28;20388;-33
2022/07/31 05:56:12;;;;;;;4.60;3.75;;;21.50;98.30;;;;;;5106540;28;20028;-33
2022/07/31 05:58:38;;;;;;;5.50;4.60;;;21.50;98.30;;;;;;5104454;28;20129;-33
2022/07/31 06:01:03;;;;;;;4.90;4.40;;;21.40;98.30;;;;;;5105860;28;20027;-35
2022/07/31 06:03:34;;;;;;;6.20;4.82;;;21.40;98.40;;;;;;5105655;28;20366;-33
2022/07/31 06:06:00;;;;;;;6.38;5.50;;;21.30;98.50;;;;;;5104518;28;20453;-35
2022/07/31 06:08:26;;;;;;;4.15;3.60;;;21.30;98.60;;;;;;5105307;28;20023;-34
2022/07/31 06:10:51;;;;;;;5.53;4.97;;;21.20;98.60;;;;;;5105997;28;20065;-34
2022/07/31 06:13:18;;;;;;;6.65;3.72;;;21.20;98.60;;;;;;5105171;28;20039;-35
2022/07/31 06:15:43;;;;;;;6.00;4.88;;;21.20;98.70;;;;;;5105988;28;20091;-34
2022/07/31 06:18:09;;;;;;;6.57;5.88;;;21.10;98.80;;;;;;5105274;28;20498;-35
2022/07/31 06:20:35;;;;;;;6.05;5.45;;;21.10;98.80;;;;;;5105537;28;20155;-34
2022/07/31 06:23:00;;;;;;;7.15;5.75;;;21.10;98.90;;;;;;5104989;28;20020;-36
2022/07/31 06:25:26;;;;;;;7.97;5.95;;;21.10;99.00;;;;;;5104531;28;20028;-36
2022/07/31 06:27:52;;;;;;;9.63;6.25;;;21.10;99.00;;;;;;5106030;28;20080;-35
2022/07/31 06:30:17;;;;;;;6.43;5.30;;;21.00;99.00;;;;;;5106123;28;20020;-34
2022/07/31 06:32:43;;;;;;;7.55;6.47;;;21.00;99.10;;;;;;5103168;28;20031;-35
2022/07/31 06:35:10;;;;;;;7.25;5.70;;;21.00;99.20;;;;;;5104850;28;20356;-34
2022/07/31 06:37:35;;;;;;;6.05;5.32;;;21.00;99.20;;;;;;5104477;28;20043;-35
2022/07/31 06:40:01;;;;;;;6.95;5.60;;;21.10;99.20;;;;;;5103740;28;20387;-35
2022/07/31 06:42:27;;;;;;;4.68;4.28;;;21.10;99.10;;;;;;5104701;28;20051;-35
2022/07/31 06:44:53;;;;;;;5.13;4.47;;;21.10;99.10;;;;;;5105145;28;20047;-35
2022/07/31 06:47:23;;;;;;;6.28;5.68;;;21.20;99.10;;;;;;5103907;28;20388;-35
2022/07/31 06:49:49;;;;;;;6.45;5.75;;;21.30;99.30;;;;;;5104383;28;20548;-33
2022/07/31 06:52:15;;;;;;;6.25;5.63;;;21.30;99.20;;;;;;5104379;28;20039;-38
2022/07/31 06:54:41;;;;;;;7.53;6.07;;;21.40;99.40;;;;;;5104333;28;20081;-36
2022/07/31 06:57:07;;;;;;;6.95;5.65;;;21.40;99.30;;;;;;5104633;28;20510;-34
2022/07/31 06:59:32;;;;;;;5.35;4.40;;;21.40;99.30;;;;;;5105282;28;20023;-35
2022/07/31 07:01:58;;;;;;;6.10;5.40;;;21.50;99.30;;;;;;5103999;28;20111;-35
2022/07/31 07:04:24;;;;;;;10.02;6.03;;;21.50;99.30;;;;;;5104320;28;20032;-38
2022/07/31 07:06:49;;;;;;;7.78;5.75;;;21.50;99.20;;;;;;5104897;28;20027;-35
2022/07/31 07:09:15;;;;;;;7.35;5.15;;;21.50;99.30;;;;;;5103772;28;20043;-34
2022/07/31 07:11:40;;;;;;;6.85;5.95;;;21.50;99.20;;;;;;5104487;28;20470;-34
2022/07/31 07:14:06;;;;;;;7.32;5.40;;;21.50;99.20;;;;;;5104617;28;20020;-34
2022/07/31 07:16:31;;;;;;;6.30;5.70;;;21.50;99.20;;;;;;5104587;28;20027;-34
2022/07/31 07:18:57;;;;;;;7.20;6.30;;;21.60;99.30;;;;;;5108932;28;20027;-34
2022/07/31 07:21:22;;;;;;;7.70;6.63;;;21.60;99.30;;;;;;5108123;28;20023;-35
2022/07/31 07:23:48;;;;;;;6.25;5.70;;;21.60;99.30;;;;;;5108452;28;20022;-34
2022/07/31 07:26:13;;;;;;;6.68;5.72;;;21.50;99.30;;;;;;5108519;28;20105;-35
2022/07/31 07:28:39;;;;;;;7.35;5.65;;;21.50;99.30;;;;;;5107622;28;20019;-34
2022/07/31 07:31:05;;;;;;;7.18;5.85;;;21.40;99.30;;;;;;5108557;28;20043;-43
2022/07/31 07:33:31;;;;;;;5.32;4.20;;;21.40;99.40;;;;;;5108367;28;20027;-44
2022/07/31 07:35:57;;;;;;;5.90;5.30;;;21.40;99.40;;;;;;5105863;27;20023;-43
2022/07/31 07:38:23;;;;;;;5.30;4.80;;;21.50;99.50;;;;;;5108832;28;20023;-43
2022/07/31 07:40:49;;;;;;;7.90;5.82;;;21.50;99.50;;;;;;5108075;28;20020;-43
2022/07/31 07:43:15;;;;;;;5.55;4.97;;;21.60;99.40;;;;;;5108369;28;20660;-44
2022/07/31 07:45:40;;;;;;;6.97;5.22;;;21.70;99.30;;;;;;5107708;28;20047;-44
2022/07/31 07:48:06;;;;;;;6.43;5.32;;;21.80;99.30;;;;;;5108416;28;20035;-44
2022/07/31 07:50:32;;;;;;;6.50;5.07;;;21.80;99.20;;;;;;5107592;28;20015;-43
2022/07/31 07:52:57;;;;;;;3.92;3.63;;;21.80;99.20;;;;;;5108939;28;20032;-43
2022/07/31 07:55:24;;;;;;;6.07;5.40;;;21.80;99.20;;;;;;5108810;28;20049;-44
2022/07/31 07:57:50;;;;;;;8.35;4.85;;;21.80;99.30;;;;;;5103805;28;20119;-43
2022/07/31 08:00:17;;;;;;;6.65;5.50;;;21.70;99.40;;;;;;5108823;28;20114;-44
2022/07/31 08:02:47;;;;;;;6.53;5.75;;;21.70;99.60;;;;;;5107461;28;20123;-44
2022/07/31 08:05:13;;;;;;;5.38;4.78;;;21.60;99.70;;;;;;5107695;28;20031;-36
2022/07/31 08:07:40;;;;;;;5.63;5.00;;;21.60;99.70;;;;;;5107345;28;20031;-32
2022/07/31 08:10:07;;;;;;;6.18;4.75;;;21.70;99.70;;;;;;5107927;28;20011;-36
2022/07/31 08:12:33;;;;;;;6.82;6.22;;;21.80;99.70;;;;;;5106229;28;20027;-35
2022/07/31 08:14:58;;;;;;;8.18;5.95;;;21.80;99.70;;;;;;5107582;28;20411;-35
2022/07/31 08:17:24;;;;;;;7.63;5.80;;;21.90;99.70;;;;;;5107898;28;20024;-35
2022/07/31 08:19:50;;;;;;;5.30;4.80;;;22.00;99.60;;;;;;5107000;28;20031;-35
2022/07/31 08:22:15;;;;;;;5.53;5.03;;;22.10;99.60;;;;;;5107984;28;20028;-34
2022/07/31 08:24:41;;;;;;;7.07;4.65;;;22.10;99.50;;;;;;5107335;28;20390;-36
2022/07/31 08:27:26;;;;;;;6.07;5.30;;;22.20;99.50;;;;;;5106997;28;20141;-35
2022/07/31 08:29:54;;;;;;;6.93;5.20;;;22.30;99.50;;;;;;5106806;28;20035;-34
2022/07/31 08:32:20;;;;;;;6.05;5.45;;;22.30;99.40;;;;;;5104931;28;20115;-35
2022/07/31 08:34:45;;;;;;;5.45;4.78;;;22.40;99.50;;;;;;5106231;28;20566;-34
2022/07/31 08:37:12;;;;;;;4.55;4.07;;;22.40;99.40;;;;;;5106930;28;20008;-34
2022/07/31 08:39:39;;;;;;;4.85;4.38;;;22.50;99.30;;;;;;5105744;28;20051;-35
2022/07/31 08:42:09;;;;;;;4.82;4.40;;;22.70;99.30;;;;;;5106635;28;20024;-35
2022/07/31 08:44:35;;;;;;;4.90;4.40;;;22.80;99.20;;;;;;5106738;28;20092;-36
2022/07/31 08:47:05;;;;;;;4.95;4.45;;;22.80;99.10;;;;;;5106113;28;20091;-36
2022/07/31 08:49:32;;;;;;;5.60;4.50;;;22.90;99.10;;;;;;5106927;28;20030;-35
2022/07/31 08:52:00;;;;;;;4.97;4.45;;;23.00;99.00;;;;;;5106033;28;20143;-34
2022/07/31 08:54:27;;;;;;;5.90;4.68;;;23.10;99.00;;;;;;5105469;28;20023;-34
2022/07/31 08:56:53;;;;;;;5.43;4.60;;;23.20;98.90;;;;;;5106590;28;20112;-35
2022/07/31 08:59:19;;;;;;;4.78;4.38;;;23.20;98.80;;;;;;5106471;28;20482;-34
2022/07/31 09:01:45;;;;;;;5.43;4.10;;;23.20;98.80;;;;;;5104195;28;20031;-35
2022/07/31 09:04:10;;;;;;;4.32;3.88;;;23.30;98.70;;;;;;5106201;28;20068;-35
2022/07/31 09:06:37;;;;;;;4.90;4.40;;;23.40;98.70;;;;;;5106278;28;20631;-34
2022/07/31 09:09:04;;;;;;;4.75;4.15;;;23.40;98.70;;;;;;5105543;28;20103;-35
2022/07/31 09:11:30;;;;;;;5.35;4.50;;;23.40;98.60;;;;;;5106006;28;20040;-35
2022/07/31 09:14:01;;;;;;;8.35;5.10;;;23.40;98.70;;;;;;5105404;28;20020;-36
2022/07/31 09:16:27;;;;;;;6.75;4.70;;;23.30;98.70;;;;;;5106185;28;20020;-35
2022/07/31 09:19:03;;;;;;;7.00;4.85;;;23.20;98.80;;;;;;5105980;28;20122;-35
2022/07/31 09:21:43;;;;;;;6.35;5.10;;;23.20;98.90;;;;;;5106059;28;20028;-36
2022/07/31 09:24:12;;;;;;;4.55;3.88;;;23.20;99.00;;;;;;5106903;28;20049;-35
2022/07/31 09:26:41;;;;;;;5.03;4.53;;;23.20;99.00;;;;;;5105712;28;20404;-35
2022/07/31 09:29:10;;;;;;;4.80;3.97;;;23.30;99.00;;;;;;5102355;28;20486;-36
2022/07/31 09:31:37;;;;;;;4.38;3.70;;;23.30;98.90;;;;;;5105965;28;20036;-34
2022/07/31 09:34:03;;;;;;;5.28;4.30;;;23.30;98.90;;;;;;5105623;28;20439;-34
2022/07/31 09:36:29;;;;;;;7.32;4.60;;;23.30;98.90;;;;;;5104963;28;20030;-35
2022/07/31 09:38:55;;;;;;;5.15;4.57;;;23.40;98.80;;;;;;5106635;28;20066;-34
2022/07/31 09:41:21;;;;;;;5.60;4.65;;;23.40;98.80;;;;;;5106091;28;20491;-35
2022/07/31 09:44:04;;;;;;;5.53;4.50;;;23.50;98.90;;;;;;5105234;28;20088;-36
2022/07/31 09:46:39;;;;;;;;;;;23.50;99.00;;;;;;5106774;28;20019;-36
2022/07/31 09:49:04;;;;;;;6.35;4.80;;;23.50;99.20;;;;;;5105283;28;19941;-36
2022/07/31 09:51:41;;;;;;;5.68;5.10;;;23.50;99.30;;;;;;5105476;28;20366;-36
2022/07/31 09:54:18;;;;;;;5.28;4.75;;;23.40;99.60;;;;;;5105987;28;20029;-35
2022/07/31 09:56:45;;;;;;;5.97;5.05;;;23.30;99.70;;;;;;5104742;28;20941;-36
2022/07/31 09:59:11;;;;;;;5.03;4.45;;;23.30;99.90;;;;;;5106309;28;20066;-35
2022/07/31 10:01:40;;;;;;;6.18;5.57;;;23.20;99.90;;;;;;5105585;28;20059;-35
2022/07/31 10:04:07;;;;;;;6.70;5.90;;;23.20;99.90;;;;;;5105629;28;20127;-35
2022/07/31 10:06:34;;;;;;;6.97;5.88;;;23.20;99.90;;;;;;5105955;28;20043;-35
2022/07/31 10:09:02;;;;;;;8.52;5.75;;;23.10;99.90;;;;;;5103038;28;20024;-35
2022/07/31 10:11:30;;;;;;;7.47;6.53;;;23.10;99.90;;;;;;5104658;28;20548;-36
2022/07/31 10:13:59;;;;;;;6.45;5.85;;;23.10;99.90;;;;;;5105785;28;20028;-36
2022/07/31 10:16:28;;;;;;;5.93;5.28;;;23.00;99.90;;;;;;5105273;28;20019;-35
2022/07/31 10:18:58;;;;;;;6.22;5.60;;;23.10;99.90;;;;;;5105133;28;20069;-34
2022/07/31 10:21:30;;;;;;;6.72;5.95;;;23.10;99.90;;;;;;5105706;28;20127;-35
2022/07/31 10:23:58;;;;;;;7.43;6.70;;;23.10;99.90;;;;;;5105907;28;20035;-35
2022/07/31 10:26:24;;;;;;;8.20;7.40;;;23.10;99.90;;;;;;5104610;28;20047;-36
2022/07/31 10:28:50;;;;;;;7.05;6.35;;;23.10;99.90;;;;;;5104792;28;20564;-35
2022/07/31 10:31:16;;;;;;;9.80;8.80;;;23.10;99.90;;;;;;5103967;28;20028;-35
2022/07/31 10:33:43;;;;;;;8.13;7.32;;;23.10;99.90;;;;;;5105817;28;20073;-34
2022/07/31 10:36:20;;;;;;;8.70;7.35;;;23.10;99.90;;;;;;5105162;28;20092;-35
2022/07/31 10:39:01;;;;;;;8.18;7.38;;;23.20;99.90;;;;;;5094201;28;20410;-36
2022/07/31 10:41:50;;;;;;;9.10;8.20;;;23.20;99.90;;;;;;5105377;28;20080;-36
2022/07/31 10:44:29;;;;;;;12.85;9.07;;;23.20;99.90;;;;;;5106309;28;20039;-35
2022/07/31 10:46:56;;;;;;;10.68;9.68;;;23.20;99.90;;;;;;5104968;28;20028;-35
2022/07/31 10:49:41;;;;;;;12.05;9.55;;;23.20;99.90;;;;;;5106118;28;20031;-35
2022/07/31 10:52:07;;;;;;;9.30;8.40;;;23.20;99.90;;;;;;5106578;28;20561;-35
2022/07/31 10:54:49;;;;;;;10.30;9.30;;;23.30;99.90;;;;;;5109050;28;20023;-35
2022/07/31 10:57:25;;;;;;;10.07;9.07;;;23.50;99.90;;;;;;5109750;28;20066;-35
2022/07/31 10:59:51;;;;;;;9.32;8.52;;;23.60;99.90;;;;;;5109257;28;20023;-35
2022/07/31 11:02:30;;;;;;;9.05;8.20;;;23.70;99.90;;;;;;5109333;28;20382;-35
2022/07/31 11:05:13;;;;;;;10.00;9.05;;;23.70;99.90;;;;;;5109529;28;20019;-34
2022/07/31 11:07:41;;;;;;;12.05;10.85;;;23.80;99.90;;;;;;5108597;28;20042;-35
2022/07/31 11:10:15;;;;;;;10.20;9.20;;;23.70;99.90;;;;;;5109789;28;20089;-35
2022/07/31 11:12:41;;;;;;;11.32;10.23;;;23.60;99.90;;;;;;5109387;28;20503;-35
2022/07/31 11:15:25;;;;;;;12.23;11.15;;;23.50;99.90;;;;;;5108737;28;20035;-36
2022/07/31 11:17:52;;;;;;;11.30;10.20;;;23.40;99.90;;;;;;5109184;28;20031;-35
2022/07/31 11:20:28;;;;;;;12.77;11.57;;;23.30;99.90;;;;;;5109977;28;20030;-34
2022/07/31 11:23:03;;;;;;;11.45;10.35;;;23.40;99.90;;;;;;5109480;28;20481;-36
2022/07/31 11:25:32;;;;;;;10.80;9.80;;;23.50;99.90;;;;;;5109215;28;20031;-35
2022/07/31 11:28:22;;;;;;;12.18;11.05;;;23.50;99.90;;;;;;5108636;28;20035;-35
2022/07/31 11:30:54;;;;;;;12.85;11.65;;;23.60;99.90;;;;;;5108658;28;20020;-35
2022/07/31 11:33:37;;;;;;;10.68;9.77;;;23.60;99.90;;;;;;5109560;28;20060;-35
2022/07/31 11:36:12;;;;;;;11.57;10.55;;;23.70;99.90;;;;;;5108794;28;20341;-35
2022/07/31 11:38:40;;;;;;;13.00;11.80;;;23.70;99.90;;;;;;5107312;28;20136;-34
2022/07/31 11:41:07;;;;;;;11.70;10.50;;;23.70;99.90;;;;;;5108757;28;20099;-33
2022/07/31 11:43:33;;;;;;;10.75;9.75;;;23.60;99.90;;;;;;5107929;28;20089;-34
2022/07/31 11:46:00;;;;;;;9.70;8.90;;;23.60;99.90;;;;;;5108458;28;20050;-35
2022/07/31 11:48:26;;;;;;;10.55;9.65;;;23.50;99.90;;;;;;5108176;28;20023;-34
2022/07/31 11:50:52;;;;;;;11.85;9.65;;;23.60;99.90;;;;;;5108130;28;20028;-35
2022/07/31 11:53:18;;;;;;;12.40;11.20;;;23.60;99.90;;;;;;5109193;28;20032;-34
2022/07/31 11:55:45;;;;;;;9.05;8.25;;;23.70;99.90;;;;;;5107310;28;20106;-36
2022/07/31 11:58:11;;;;;;;8.48;7.63;;;23.80;99.90;;;;;;5109065;28;20034;-35
2022/07/31 12:00:37;;;;;;;7.68;6.97;;;24.10;99.90;;;;;;5108414;28;20069;-35
2022/07/31 12:03:02;;;;;;;8.75;7.95;;;24.40;99.90;;;;;;5106576;28;20063;-34
2022/07/31 12:05:28;;;;;;;9.23;8.48;;;24.70;99.90;;;;;;5108059;28;20502;-35
2022/07/31 12:07:54;;;;;;;7.90;7.20;;;24.80;99.90;;;;;;5108389;28;20015;-36
2022/07/31 12:10:21;;;;;;;8.45;7.55;;;24.90;99.90;;;;;;5107791;28;20108;-36
2022/07/31 12:12:47;;;;;;;8.77;8.07;;;24.90;99.90;;;;;;5107745;28;20043;-35
2022/07/31 12:15:19;;;;;;;8.68;7.88;;;24.90;99.90;;;;;;5108670;28;20018;-35
2022/07/31 12:17:46;;;;;;;8.18;7.47;;;24.80;99.90;;;;;;5107089;28;20035;-34
2022/07/31 12:20:12;;;;;;;6.85;6.25;;;24.70;99.90;;;;;;5108049;28;20112;-35
2022/07/31 12:22:37;;;;;;;6.95;6.35;;;24.60;99.90;;;;;;5108569;28;20059;-36
2022/07/31 12:25:05;;;;;;;6.80;5.80;;;24.60;99.90;;;;;;5107219;28;20136;-35
2022/07/31 12:27:31;;;;;;;5.75;5.35;;;24.60;99.90;;;;;;5108121;28;20054;-36
2022/07/31 12:29:56;;;;;;;6.18;5.68;;;24.60;99.90;;;;;;5107759;28;20035;-35
2022/07/31 12:32:26;;;;;;;6.72;6.13;;;24.70;99.90;;;;;;5107001;28;20031;-35
2022/07/31 12:35:03;;;;;;;5.65;5.00;;;24.70;99.90;;;;;;5107892;28;20035;-34
2022/07/31 12:37:29;;;;;;;6.50;5.90;;;24.70;99.90;;;;;;5107742;28;20016;-35
2022/07/31 12:40:02;;;;;;;6.47;5.97;;;24.70;99.90;;;;;;5107259;28;20028;-35
2022/07/31 12:42:31;;;;;;;4.90;4.50;;;24.60;99.90;;;;;;5104891;28;20111;-35
2022/07/31 12:45:00;;;;;;;5.47;4.97;;;24.50;99.90;;;;;;5106354;28;20428;-35
2022/07/31 12:47:31;;;;;;;5.57;5.10;;;24.40;99.90;;;;;;5107266;28;20532;-35